createdAt,value
2022-10-21T00:03:06.681Z,11.80
2022-10-21T00:08:05.705Z,11.63
2022-10-21T00:13:05.914Z,11.70
2022-10-21T00:18:05.091Z,11.47
2022-10-21T00:23:03.860Z,11.40
2022-10-21T00:28:02.618Z,11.40
2022-10-21T00:33:03.389Z,11.48
2022-10-21T00:38:02.291Z,11.48
2022-10-21T00:43:01.566Z,11.54
2022-10-21T00:48:03.938Z,11.52
2022-10-21T00:53:04.762Z,11.51
2022-10-21T00:58:04.781Z,11.35
2022-10-21T01:03:05.096Z,11.30
2022-10-21T01:08:03.778Z,11.28
2022-10-21T01:13:16.447Z,11.41
2022-10-21T01:18:22.724Z,11.24
2022-10-21T01:23:53.770Z,11.26
2022-10-21T01:29:07.319Z,11.23
2022-10-21T01:34:10.968Z,10.99
2022-10-21T01:39:24.100Z,10.82
2022-10-21T01:44:28.314Z,10.98
2022-10-21T01:49:33.666Z,11.09
2022-10-21T01:54:36.567Z,11.12
2022-10-21T01:59:36.691Z,10.99
2022-10-21T02:04:39.352Z,11.00
2022-10-21T02:09:38.188Z,10.72
2022-10-21T02:14:40.852Z,10.80
2022-10-21T02:19:40.954Z,10.73
2022-10-21T02:24:46.093Z,10.72
2022-10-21T02:29:47.357Z,10.74
2022-10-21T02:35:00.107Z,10.57
2022-10-21T02:40:06.078Z,10.44
2022-10-21T02:45:05.786Z,10.46
2022-10-21T02:50:06.689Z,10.39
2022-10-21T02:55:06.085Z,10.37
2022-10-21T03:00:06.420Z,10.29
2022-10-21T03:05:07.379Z,10.25
2022-10-21T03:10:07.129Z,10.12
2022-10-21T03:15:06.796Z,10.01
2022-10-21T03:20:07.690Z,9.97
2022-10-21T03:25:07.477Z,9.88
2022-10-21T03:30:07.447Z,9.79
2022-10-21T03:35:09.033Z,9.60
2022-10-21T03:40:12.271Z,9.62
2022-10-21T03:45:12.641Z,9.64
2022-10-21T03:50:15.095Z,9.60
2022-10-21T03:55:20.907Z,9.55
2022-10-21T04:00:20.307Z,9.50
2022-10-21T04:05:20.542Z,9.40
2022-10-21T04:10:19.448Z,9.37
2022-10-21T04:15:18.211Z,9.24
2022-10-21T04:20:17.062Z,9.21
2022-10-21T04:25:17.297Z,9.21
2022-10-21T04:30:16.055Z,9.16
2022-10-21T04:35:14.959Z,11.56
2022-10-21T04:40:13.994Z,11.78
2022-10-21T04:45:23.963Z,10.88
2022-10-21T04:50:23.101Z,10.39
2022-10-21T04:55:23.871Z,10.15
2022-10-21T05:00:24.927Z,9.83
2022-10-21T05:05:25.663Z,9.61
2022-10-21T05:10:25.676Z,9.52
2022-10-21T05:15:26.208Z,9.55
2022-10-21T05:20:25.094Z,9.40
2022-10-21T05:25:24.237Z,9.43
2022-10-21T05:30:23.005Z,9.32
2022-10-21T05:35:23.217Z,9.37
2022-10-21T05:40:22.035Z,9.42
2022-10-21T05:45:21.211Z,9.50
2022-10-21T05:50:20.153Z,9.60
2022-10-21T05:55:23.312Z,9.59
2022-10-21T06:00:27.963Z,9.57
2022-10-21T06:05:31.730Z,9.74
2022-10-21T06:10:31.931Z,9.62
2022-10-21T06:15:30.817Z,9.66
2022-10-21T06:20:31.655Z,9.51
2022-10-21T06:25:32.442Z,9.57
2022-10-21T06:30:31.786Z,9.72
2022-10-21T06:35:38.336Z,9.93
2022-10-21T06:40:38.897Z,10.00
2022-10-21T06:45:40.294Z,10.32
2022-10-21T06:50:42.867Z,10.35
2022-10-21T06:55:44.892Z,10.30
2022-10-21T07:00:44.712Z,10.58
2022-10-21T07:05:43.674Z,10.90
2022-10-21T07:10:45.342Z,10.88
2022-10-21T07:15:44.713Z,11.36
2022-10-21T07:20:43.822Z,11.40
2022-10-21T07:25:44.059Z,11.62
2022-10-21T07:30:43.537Z,11.82
2022-10-21T07:35:42.679Z,11.87
2022-10-21T07:40:43.953Z,12.13
2022-10-21T07:45:44.186Z,12.09
2022-10-21T07:50:43.171Z,12.34
2022-10-21T07:55:43.799Z,12.60
2022-10-21T08:00:44.873Z,12.80
2022-10-21T08:05:43.690Z,13.03
2022-10-21T08:10:44.037Z,13.35
2022-10-21T08:15:43.806Z,13.59
2022-10-21T08:20:43.614Z,13.95
2022-10-21T08:25:49.709Z,14.36
2022-10-21T08:30:48.823Z,14.68
2022-10-21T08:35:47.733Z,15.21
2022-10-21T08:40:51.165Z,15.76
2022-10-21T08:45:56.815Z,16.28
2022-10-21T08:50:58.742Z,17.50
2022-10-21T08:56:05.399Z,18.69
2022-10-21T09:01:06.999Z,19.64
2022-10-21T09:06:18.822Z,20.74
2022-10-21T09:11:30.046Z,21.73
2022-10-21T09:16:41.908Z,22.50
2022-10-21T09:22:05.554Z,23.09
2022-10-21T09:27:31.976Z,23.75
2022-10-21T09:32:36.333Z,23.66
2022-10-21T09:37:41.298Z,22.43
2022-10-21T09:42:47.364Z,22.65
2022-10-21T09:47:53.883Z,22.99
2022-10-21T09:52:59.392Z,22.90
2022-10-21T09:58:01.596Z,22.68
2022-10-21T10:03:00.343Z,22.90
2022-10-21T10:07:59.150Z,22.87
2022-10-21T10:13:00.810Z,22.79
2022-10-21T10:17:59.490Z,22.52
2022-10-21T10:23:19.723Z,22.91
2022-10-21T10:28:24.998Z,24.07
2022-10-21T10:33:25.991Z,24.18
2022-10-21T10:38:28.572Z,24.52
2022-10-21T10:43:31.826Z,24.51
2022-10-21T10:48:37.389Z,24.87
2022-10-21T10:53:37.700Z,25.05
2022-10-21T10:58:43.309Z,24.85
2022-10-21T11:03:47.365Z,24.99
2022-10-21T11:08:51.647Z,25.75
2022-10-21T11:13:52.863Z,26.44
2022-10-21T11:18:59.055Z,27.65
2022-10-21T11:24:39.464Z,27.94
2022-10-21T11:29:52.789Z,28.49
2022-10-21T11:35:17.351Z,27.94
2022-10-21T11:40:25.620Z,28.11
2022-10-21T11:45:38.572Z,29.05
2022-10-21T11:50:47.462Z,29.80
2022-10-21T11:55:53.964Z,29.99
2022-10-21T12:01:04.535Z,30.42
2022-10-21T12:06:12.994Z,30.92
2022-10-21T12:11:16.759Z,31.71
2022-10-21T12:16:19.942Z,31.98
2022-10-21T12:21:22.914Z,32.41
2022-10-21T12:26:31.956Z,32.50
2022-10-21T12:31:45.468Z,32.89
2022-10-21T12:36:49.479Z,33.12
2022-10-21T12:41:49.791Z,33.66
2022-10-21T12:47:03.837Z,33.23
2022-10-21T12:52:10.430Z,32.59
2022-10-21T12:57:11.229Z,32.78
2022-10-21T13:02:21.789Z,32.84
2022-10-21T13:07:35.239Z,32.32
2022-10-21T13:12:34.854Z,31.50
2022-10-21T13:17:50.874Z,32.36
2022-10-21T13:23:01.869Z,33.03
2022-10-21T13:28:06.821Z,33.58
2022-10-21T13:33:23.785Z,33.21
2022-10-21T13:38:43.107Z,33.10
2022-10-21T13:43:48.715Z,33.31
2022-10-21T13:48:50.224Z,33.32
2022-10-21T13:53:50.410Z,33.13
2022-10-21T13:58:51.673Z,33.18
2022-10-21T14:03:58.271Z,32.83
2022-10-21T14:08:57.835Z,32.47
2022-10-21T14:14:01.566Z,32.25
2022-10-21T14:19:06.389Z,32.05
2022-10-21T14:24:07.768Z,32.40
2022-10-21T14:29:06.896Z,32.61
2022-10-21T14:34:11.930Z,32.52
2022-10-21T14:39:20.975Z,32.21
2022-10-21T14:44:25.345Z,31.99
2022-10-21T14:49:28.714Z,31.74
2022-10-21T14:54:42.774Z,31.47
2022-10-21T14:59:44.604Z,30.97
2022-10-21T15:04:54.884Z,30.33
2022-10-21T15:10:18.653Z,29.53
2022-10-21T15:15:53.305Z,28.68
2022-10-21T15:20:57.311Z,27.92
2022-10-21T15:26:00.569Z,27.27
2022-10-21T15:31:00.248Z,26.58
2022-10-21T15:36:05.223Z,25.93
2022-10-21T15:41:04.680Z,25.37
2022-10-21T15:46:03.526Z,24.73
2022-10-21T15:51:03.763Z,24.20
2022-10-21T15:56:02.819Z,23.74
2022-10-21T16:01:01.618Z,23.30
2022-10-21T16:06:00.609Z,22.88
2022-10-21T16:11:00.985Z,22.49
2022-10-21T16:15:59.867Z,22.46
2022-10-21T16:20:59.035Z,22.22
2022-10-21T16:25:58.187Z,21.66
2022-10-21T16:30:59.318Z,21.21
2022-10-21T16:35:58.129Z,20.57
2022-10-21T16:40:57.015Z,19.97
2022-10-21T16:45:55.786Z,19.72
2022-10-21T16:50:58.006Z,19.34
2022-10-21T16:55:58.123Z,19.11
2022-10-21T17:00:57.806Z,18.91
2022-10-21T17:05:58.179Z,18.92
2022-10-21T17:10:57.193Z,18.85
2022-10-21T17:15:57.989Z,18.72
2022-10-21T17:20:58.324Z,18.45
2022-10-21T17:25:58.369Z,18.21
2022-10-21T17:30:57.897Z,18.17
2022-10-21T17:36:00.782Z,18.08
2022-10-21T17:40:59.625Z,17.96
2022-10-21T17:45:58.918Z,17.78
2022-10-21T17:51:04.673Z,17.45
2022-10-21T17:56:07.059Z,17.34
2022-10-21T18:01:09.257Z,17.35
2022-10-21T18:06:23.229Z,17.33
2022-10-21T18:11:24.282Z,17.18
2022-10-21T18:16:26.390Z,16.88
2022-10-21T18:21:26.682Z,16.90
2022-10-21T18:26:28.258Z,16.87
2022-10-21T18:31:30.950Z,16.91
2022-10-21T18:36:31.389Z,16.93
2022-10-21T18:41:35.898Z,16.85
2022-10-21T18:46:39.240Z,16.81
2022-10-21T18:51:39.934Z,16.77
2022-10-21T18:56:38.834Z,16.74
2022-10-21T19:01:38.005Z,16.70
2022-10-21T19:06:43.827Z,16.61
2022-10-21T19:11:46.260Z,16.57
2022-10-21T19:16:47.485Z,16.52
2022-10-21T19:21:51.611Z,16.42
2022-10-21T19:26:54.342Z,16.29
2022-10-21T19:31:55.701Z,16.25
2022-10-21T19:36:57.234Z,15.99
2022-10-21T19:41:56.345Z,15.66
2022-10-21T19:46:55.266Z,15.62
2022-10-21T19:51:56.630Z,15.64
2022-10-21T19:56:57.090Z,15.64
2022-10-21T20:01:56.121Z,15.55
2022-10-21T20:06:55.299Z,15.48
2022-10-21T20:11:57.710Z,15.50
2022-10-21T20:16:56.818Z,15.51
2022-10-21T20:21:55.899Z,15.54
2022-10-21T20:26:58.417Z,15.53
2022-10-21T20:32:01.558Z,15.54
2022-10-21T20:37:00.362Z,15.52
2022-10-21T20:41:59.290Z,15.51
2022-10-21T20:46:58.177Z,15.52
2022-10-21T20:51:58.535Z,15.53
2022-10-21T20:56:57.325Z,15.36
2022-10-21T21:01:56.230Z,15.26
2022-10-21T21:06:55.336Z,15.29
2022-10-21T21:11:55.621Z,15.25
2022-10-21T21:16:54.509Z,15.13
2022-10-21T21:21:53.736Z,14.94
2022-10-21T21:26:52.792Z,14.73
2022-10-21T21:31:53.148Z,14.80
2022-10-21T21:36:52.076Z,14.58
2022-10-21T21:41:51.006Z,14.59
2022-10-21T21:46:50.137Z,14.69
2022-10-21T21:51:50.345Z,14.75
2022-10-21T21:56:52.054Z,14.80
2022-10-21T22:01:56.278Z,14.80
2022-10-21T22:07:01.834Z,14.57
2022-10-21T22:12:01.744Z,14.59
2022-10-21T22:17:00.589Z,14.62
2022-10-21T22:22:00.920Z,14.61
2022-10-21T22:26:59.726Z,14.50
2022-10-21T22:31:58.475Z,14.48
2022-10-21T22:36:57.331Z,14.46
2022-10-21T22:41:57.682Z,14.47
2022-10-21T22:46:56.480Z,14.47
2022-10-21T22:51:55.278Z,14.41
2022-10-21T22:56:54.059Z,14.37
2022-10-21T23:01:54.825Z,14.40
2022-10-21T23:06:53.771Z,14.31
2022-10-21T23:11:52.773Z,14.26
2022-10-21T23:16:52.444Z,14.21
2022-10-21T23:21:52.611Z,14.25
2022-10-21T23:26:51.539Z,14.25
2022-10-21T23:31:50.397Z,14.20
2022-10-21T23:36:49.371Z,14.18
2022-10-21T23:41:49.682Z,14.15
2022-10-21T23:46:48.512Z,14.10
2022-10-21T23:51:47.370Z,14.04
2022-10-21T23:56:46.676Z,13.84
